createdAt,value
2017-08-03T00:06:35.361Z,99.90
2017-08-03T00:12:06.014Z,99.90
2017-08-03T00:23:27.708Z,99.90
2017-08-03T00:29:33.770Z,99.90
2017-08-03T00:32:01.310Z,99.90
2017-08-03T00:34:36.667Z,99.90
2017-08-03T00:37:04.183Z,99.90
2017-08-03T00:39:31.701Z,99.90
2017-08-03T00:51:51.647Z,99.90
2017-08-03T00:54:51.386Z,99.90
2017-08-03T00:57:51.941Z,99.90
2017-08-03T01:09:57.731Z,99.90
2017-08-03T01:12:25.241Z,99.90
2017-08-03T01:14:53.860Z,99.90
2017-08-03T01:20:33.530Z,99.90
2017-08-03T01:23:01.051Z,99.90
2017-08-03T01:25:29.338Z,99.90
2017-08-03T01:31:14.074Z,99.90
2017-08-03T01:33:41.918Z,99.90
2017-08-03T01:42:33.451Z,99.90
2017-08-03T01:45:01.000Z,99.90
2017-08-03T01:47:35.378Z,99.90
2017-08-03T01:56:31.789Z,99.90
2017-08-03T01:58:59.309Z,99.90
2017-08-03T02:01:27.150Z,99.90
2017-08-03T02:03:54.687Z,99.90
2017-08-03T02:06:22.974Z,99.90
2017-08-03T02:08:50.504Z,99.90
2017-08-03T02:11:18.032Z,99.90
2017-08-03T02:16:48.428Z,99.90
2017-08-03T02:19:17.039Z,99.90
2017-08-03T02:21:44.569Z,99.90
2017-08-03T02:24:12.882Z,99.90
2017-08-03T02:26:40.441Z,99.90
2017-08-03T02:29:07.958Z,99.90
2017-08-03T02:38:12.064Z,99.90
2017-08-03T02:44:16.266Z,99.90
2017-08-03T02:46:44.566Z,99.90
2017-08-03T02:52:18.174Z,99.90
2017-08-03T02:55:05.294Z,99.90
2017-08-03T02:57:32.935Z,99.90
2017-08-03T03:03:19.120Z,99.90
2017-08-03T03:05:46.988Z,99.90
2017-08-03T03:08:14.577Z,99.90
2017-08-03T03:10:42.094Z,99.90
2017-08-03T03:13:09.622Z,99.90
2017-08-03T03:35:02.343Z,99.90
2017-08-03T03:37:30.192Z,99.90
2017-08-03T03:39:57.711Z,99.90
2017-08-03T03:42:26.058Z,99.90
2017-08-03T03:44:53.568Z,99.90
2017-08-03T03:50:53.838Z,99.90
2017-08-03T03:53:21.356Z,99.90
2017-08-03T03:59:34.236Z,99.90
2017-08-03T04:02:02.038Z,99.90
2017-08-03T04:04:29.548Z,99.90
2017-08-03T04:06:57.071Z,99.90
2017-08-03T04:09:24.612Z,99.90
2017-08-03T04:31:59.324Z,99.90
2017-08-03T04:34:26.861Z,99.90
2017-08-03T04:40:09.952Z,99.90
2017-08-03T04:49:26.292Z,99.90
2017-08-03T04:57:40.880Z,99.90
2017-08-03T05:03:09.629Z,99.90
2017-08-03T05:05:37.172Z,99.90
2017-08-03T05:08:04.709Z,99.90
2017-08-03T05:16:21.088Z,99.90
2017-08-03T05:18:56.845Z,99.90
2017-08-03T05:21:24.381Z,99.90
2017-08-03T05:23:52.044Z,99.90
2017-08-03T05:26:19.570Z,99.90
2017-08-03T05:28:47.253Z,99.90
2017-08-03T05:31:14.797Z,99.90
2017-08-03T05:33:42.472Z,99.90
2017-08-03T05:36:10.699Z,99.90
2017-08-03T05:38:38.396Z,99.90
2017-08-03T05:41:06.000Z,99.90
2017-08-03T05:43:33.530Z,99.90
2017-08-03T05:46:01.058Z,99.90
2017-08-03T05:48:28.866Z,99.90
2017-08-03T05:50:56.386Z,99.90
2017-08-03T05:53:25.229Z,99.90
2017-08-03T05:55:52.932Z,99.90
2017-08-03T05:58:21.223Z,99.90
2017-08-03T06:00:49.416Z,99.90
2017-08-03T06:03:17.310Z,99.90
2017-08-03T06:05:44.834Z,99.90
2017-08-03T06:08:12.360Z,99.90
2017-08-03T06:10:39.882Z,99.90
2017-08-03T06:13:07.760Z,99.90
2017-08-03T06:15:35.294Z,99.90
2017-08-03T06:18:02.873Z,99.90
2017-08-03T06:20:30.437Z,99.90
2017-08-03T06:22:57.953Z,99.90
2017-08-03T06:25:29.312Z,99.90
2017-08-03T06:27:58.334Z,99.90
2017-08-03T06:30:25.968Z,99.90
2017-08-03T06:32:53.515Z,99.90
2017-08-03T06:35:21.024Z,99.90
2017-08-03T06:37:48.841Z,99.90
2017-08-03T06:40:16.366Z,99.90
2017-08-03T06:42:43.885Z,99.90
2017-08-03T06:45:14.002Z,99.90
2017-08-03T06:47:45.585Z,99.90
2017-08-03T06:50:13.526Z,99.90
2017-08-03T06:52:41.067Z,99.90
2017-08-03T06:55:08.587Z,99.90
2017-08-03T06:57:36.127Z,99.90
2017-08-03T07:00:03.774Z,99.90
2017-08-03T07:02:35.344Z,99.90
2017-08-03T07:05:06.839Z,99.90
2017-08-03T07:07:46.375Z,99.90
2017-08-03T07:10:40.049Z,99.90
2017-08-03T07:16:02.937Z,99.90
2017-08-03T07:18:30.456Z,99.90
2017-08-03T07:27:05.903Z,99.90
2017-08-03T07:30:02.720Z,99.90
2017-08-03T07:38:45.026Z,99.90
2017-08-03T07:41:12.556Z,99.90
2017-08-03T07:44:04.277Z,99.90
2017-08-03T07:46:31.846Z,99.90
2017-08-03T07:48:59.363Z,99.90
2017-08-03T07:57:41.981Z,99.90
2017-08-03T08:03:34.421Z,99.90
2017-08-03T08:06:02.282Z,99.90
2017-08-03T08:11:41.051Z,99.90
2017-08-03T08:14:08.562Z,99.90
2017-08-03T08:16:36.152Z,99.90
2017-08-03T08:19:03.693Z,99.90
2017-08-03T08:21:31.585Z,99.90
2017-08-03T08:53:08.299Z,99.90
2017-08-03T08:55:35.833Z,99.90
2017-08-03T08:58:03.376Z,99.90
2017-08-03T09:03:25.668Z,99.90
2017-08-03T09:05:53.186Z,99.90
2017-08-03T09:08:21.479Z,99.90
2017-08-03T09:10:49.371Z,99.90
2017-08-03T10:05:39.657Z,99.90
2017-08-03T10:08:07.232Z,99.90
2017-08-03T10:10:34.781Z,99.90
2017-08-03T10:13:02.662Z,99.90
2017-08-03T10:15:30.177Z,99.90
2017-08-03T10:17:58.466Z,99.90
2017-08-03T10:20:27.055Z,99.90
2017-08-03T10:22:54.581Z,99.90
2017-08-03T10:25:36.777Z,99.90
2017-08-03T10:28:04.302Z,99.90
2017-08-03T10:30:34.605Z,99.90
2017-08-03T10:33:03.065Z,99.90
2017-08-03T10:35:31.372Z,99.90
2017-08-03T10:37:58.919Z,99.90
2017-08-03T10:40:26.463Z,99.90
2017-08-03T10:42:55.221Z,99.90
2017-08-03T10:45:22.748Z,99.90
2017-08-03T10:47:50.277Z,99.90
2017-08-03T10:50:18.582Z,99.90
2017-08-03T10:52:46.108Z,99.90
2017-08-03T10:55:18.327Z,99.90
2017-08-03T10:57:46.673Z,99.90
2017-08-03T11:00:17.249Z,99.90
2017-08-03T11:02:44.802Z,99.90
2017-08-03T11:05:15.590Z,99.90
2017-08-03T11:07:43.129Z,99.90
2017-08-03T11:10:10.657Z,99.90
2017-08-03T11:12:38.495Z,99.90
2017-08-03T11:15:08.277Z,99.90
2017-08-03T11:17:36.549Z,99.90
2017-08-03T11:23:07.695Z,99.90
2017-08-03T11:28:25.188Z,99.90
2017-08-03T11:39:52.481Z,99.90
2017-08-03T11:42:21.100Z,99.90
2017-08-03T11:48:36.275Z,99.90
2017-08-03T11:51:43.519Z,99.90
2017-08-03T11:54:12.195Z,99.90
2017-08-03T11:56:39.708Z,99.90
2017-08-03T11:59:10.985Z,99.90
2017-08-03T12:04:17.266Z,99.90
2017-08-03T12:06:45.126Z,99.90
2017-08-03T12:09:18.263Z,99.90
2017-08-03T12:14:43.813Z,99.90
2017-08-03T12:17:12.107Z,99.90
2017-08-03T12:19:40.018Z,99.90
2017-08-03T12:25:30.676Z,99.90
2017-08-03T12:27:58.971Z,99.90
2017-08-03T12:30:26.881Z,99.90
2017-08-03T12:32:54.393Z,99.90
2017-08-03T12:35:38.979Z,99.90
2017-08-03T12:38:06.510Z,99.90
2017-08-03T12:40:34.810Z,99.90
2017-08-03T12:43:02.349Z,99.90
2017-08-03T12:45:30.633Z,99.90
2017-08-03T12:47:58.536Z,99.90
2017-08-03T12:50:33.008Z,99.90
2017-08-03T12:53:03.204Z,99.90
2017-08-03T12:55:36.204Z,99.90
2017-08-03T12:58:10.718Z,99.90
2017-08-03T13:00:49.867Z,99.90
2017-08-03T13:03:18.419Z,99.90
2017-08-03T13:05:45.929Z,99.90
2017-08-03T13:08:16.063Z,99.90
2017-08-03T13:10:49.149Z,99.90
2017-08-03T13:13:16.694Z,99.90
2017-08-03T13:15:52.209Z,99.90
2017-08-03T13:18:22.541Z,99.90
2017-08-03T13:20:50.371Z,99.90
2017-08-03T13:23:17.886Z,99.90
2017-08-03T13:25:46.201Z,99.90
2017-08-03T13:28:13.752Z,99.90
2017-08-03T13:30:41.286Z,99.90
2017-08-03T13:33:09.904Z,99.90
2017-08-03T13:35:37.427Z,99.90
2017-08-03T13:38:05.711Z,99.90
2017-08-03T13:40:33.269Z,99.90
2017-08-03T13:43:00.790Z,99.90
2017-08-03T13:45:28.639Z,99.90
2017-08-03T13:47:56.172Z,99.90
2017-08-03T13:50:23.692Z,99.90
2017-08-03T13:52:51.797Z,99.90
2017-08-03T13:55:19.306Z,99.90
2017-08-03T13:57:47.149Z,99.90
2017-08-03T14:00:15.237Z,99.90
2017-08-03T14:02:43.132Z,99.90
2017-08-03T14:05:10.698Z,99.90
2017-08-03T14:07:38.215Z,99.90
2017-08-03T14:10:05.737Z,99.90
2017-08-03T14:12:34.114Z,99.90
2017-08-03T14:15:01.656Z,99.90
2017-08-03T14:17:29.950Z,99.90
2017-08-03T14:20:01.808Z,99.90
2017-08-03T14:22:30.155Z,99.90
2017-08-03T14:24:59.991Z,99.90
2017-08-03T14:27:30.810Z,99.90
2017-08-03T14:29:58.327Z,99.90
2017-08-03T14:32:26.629Z,99.90
2017-08-03T14:34:59.030Z,99.20
2017-08-03T14:37:27.611Z,99.90
2017-08-03T14:39:55.887Z,99.90
2017-08-03T14:42:23.540Z,99.90
2017-08-03T14:44:51.256Z,98.60
2017-08-03T14:47:18.822Z,98.60
2017-08-03T14:49:46.792Z,98.90
2017-08-03T14:52:14.317Z,99.40
2017-08-03T14:54:41.993Z,99.90
2017-08-03T14:57:10.747Z,99.00
2017-08-03T14:59:39.259Z,98.00
2017-08-03T15:02:07.133Z,97.90
2017-08-03T15:04:34.816Z,98.50
2017-08-03T15:07:02.629Z,97.80
2017-08-03T15:09:30.934Z,96.40
2017-08-03T15:11:58.456Z,96.30
2017-08-03T15:14:26.293Z,96.00
2017-08-03T15:16:54.372Z,95.20
2017-08-03T15:19:21.895Z,95.40
2017-08-03T15:21:49.422Z,96.10
2017-08-03T15:24:17.104Z,96.90
2017-08-03T15:26:44.989Z,98.30
2017-08-03T15:29:13.138Z,99.30
2017-08-03T15:31:41.423Z,99.90
2017-08-03T15:34:09.154Z,99.90
2017-08-03T15:36:36.891Z,99.90
2017-08-03T15:39:04.740Z,99.90
2017-08-03T15:41:34.218Z,99.90
2017-08-03T15:44:02.956Z,99.90
2017-08-03T15:46:32.196Z,99.90
2017-08-03T15:49:02.171Z,99.90
2017-08-03T15:51:31.327Z,99.90
2017-08-03T15:53:58.856Z,99.90
2017-08-03T15:56:29.321Z,99.90
2017-08-03T15:58:59.553Z,99.90
2017-08-03T16:01:27.083Z,99.90
2017-08-03T16:03:56.812Z,99.90
2017-08-03T16:06:24.317Z,99.90
2017-08-03T16:08:52.114Z,99.90
2017-08-03T16:11:21.376Z,99.90
2017-08-03T16:13:48.890Z,99.90
2017-08-03T16:16:16.413Z,99.90
2017-08-03T16:18:43.942Z,99.90
2017-08-03T16:21:11.856Z,99.90
2017-08-03T16:23:40.279Z,99.90
2017-08-03T16:26:07.955Z,99.90
2017-08-03T16:28:35.627Z,99.90
2017-08-03T16:31:03.148Z,99.90
2017-08-03T16:33:31.886Z,99.90
2017-08-03T16:35:59.777Z,99.90
2017-08-03T16:38:28.050Z,99.90
2017-08-03T16:40:57.869Z,99.90
2017-08-03T16:43:26.142Z,99.90
2017-08-03T16:45:54.770Z,99.90
2017-08-03T16:48:23.686Z,99.90
2017-08-03T16:50:51.205Z,99.90
2017-08-03T16:53:18.750Z,99.90
2017-08-03T16:55:50.639Z,99.90
2017-08-03T16:58:34.813Z,99.90
2017-08-03T17:01:02.555Z,99.90
2017-08-03T17:03:31.895Z,99.90
2017-08-03T17:05:59.419Z,99.90
2017-08-03T17:08:26.941Z,99.90
2017-08-03T17:11:04.800Z,99.90
2017-08-03T17:13:34.360Z,99.90
2017-08-03T17:16:04.201Z,99.90
2017-08-03T17:18:31.710Z,99.90
2017-08-03T17:21:10.255Z,99.90
2017-08-03T17:23:38.464Z,99.90
2017-08-03T17:26:06.898Z,99.90
2017-08-03T17:28:34.436Z,99.90
2017-08-03T17:31:01.960Z,99.90
2017-08-03T17:33:29.846Z,99.80
2017-08-03T17:36:19.300Z,99.90
2017-08-03T17:38:52.996Z,99.90
2017-08-03T17:41:24.550Z,99.40
2017-08-03T17:43:57.122Z,99.90
2017-08-03T17:46:24.651Z,99.90
2017-08-03T17:48:52.182Z,99.90
2017-08-03T17:51:26.703Z,99.90
2017-08-03T17:53:54.256Z,99.90
2017-08-03T17:56:21.916Z,99.90
2017-08-03T17:58:49.431Z,99.90
2017-08-03T18:01:17.609Z,99.90
2017-08-03T18:03:45.156Z,99.90
2017-08-03T18:06:12.697Z,99.90
2017-08-03T18:08:41.098Z,99.90
2017-08-03T18:11:08.609Z,99.90
2017-08-03T18:13:36.179Z,99.90
2017-08-03T18:16:03.707Z,99.90
2017-08-03T18:18:31.272Z,99.90
2017-08-03T18:20:59.120Z,99.90
2017-08-03T18:23:26.650Z,99.90
2017-08-03T18:25:57.937Z,99.90
2017-08-03T18:28:25.465Z,99.90
2017-08-03T18:30:52.989Z,99.90
2017-08-03T18:33:20.616Z,99.90
2017-08-03T18:35:52.290Z,99.90
2017-08-03T18:38:27.209Z,99.90
2017-08-03T18:40:54.741Z,99.90
2017-08-03T18:43:25.608Z,99.90
2017-08-03T18:45:53.137Z,99.90
2017-08-03T18:48:20.652Z,99.90
2017-08-03T18:50:48.178Z,99.90
2017-08-03T18:53:15.703Z,99.90
2017-08-03T18:55:43.502Z,99.90
2017-08-03T18:58:14.772Z,99.90
2017-08-03T19:00:42.287Z,99.90
2017-08-03T19:03:10.488Z,99.90
2017-08-03T19:05:38.014Z,99.90
2017-08-03T19:08:09.335Z,99.90
2017-08-03T19:10:36.879Z,99.90
2017-08-03T19:13:07.212Z,99.90
2017-08-03T19:15:34.734Z,99.90
2017-08-03T19:18:07.126Z,99.90
2017-08-03T19:20:34.764Z,99.90
2017-08-03T19:23:02.287Z,99.90
2017-08-03T19:25:39.601Z,99.90
2017-08-03T19:28:07.116Z,99.90
2017-08-03T19:30:34.654Z,99.90
2017-08-03T19:33:06.629Z,99.90
2017-08-03T19:35:34.152Z,99.90
2017-08-03T19:38:02.031Z,99.90
2017-08-03T19:40:29.542Z,99.90
2017-08-03T19:43:01.166Z,99.90
2017-08-03T19:45:34.886Z,99.90
2017-08-03T19:48:06.324Z,99.90
2017-08-03T19:50:38.356Z,99.90
2017-08-03T19:55:51.551Z,99.90
2017-08-03T20:01:20.610Z,99.90
2017-08-03T20:03:50.545Z,99.90
2017-08-03T20:06:28.810Z,99.90
2017-08-03T20:09:09.669Z,99.90
2017-08-03T20:11:38.097Z,99.90
2017-08-03T20:14:05.943Z,99.90
2017-08-03T20:16:35.559Z,99.90
2017-08-03T20:19:03.102Z,99.90
2017-08-03T20:21:30.634Z,99.90
2017-08-03T20:23:58.261Z,99.90
2017-08-03T20:26:27.397Z,99.90
2017-08-03T20:28:55.690Z,99.90
2017-08-03T20:31:23.990Z,99.90
2017-08-03T20:33:51.525Z,99.90
2017-08-03T20:36:20.107Z,99.90
2017-08-03T20:38:48.395Z,99.90
2017-08-03T20:41:15.922Z,99.90
2017-08-03T20:43:43.458Z,99.90
2017-08-03T20:46:10.995Z,99.90
2017-08-03T20:48:38.900Z,99.90
2017-08-03T20:51:06.413Z,99.90
2017-08-03T20:53:33.936Z,99.90
2017-08-03T20:56:02.228Z,99.90
2017-08-03T20:58:29.777Z,99.90
2017-08-03T21:00:58.406Z,99.90
2017-08-03T21:03:27.910Z,99.90
2017-08-03T21:05:55.424Z,99.90
2017-08-03T21:08:23.719Z,99.90
2017-08-03T21:10:51.247Z,99.90
2017-08-03T21:13:18.893Z,99.90
2017-08-03T21:15:46.403Z,99.90
2017-08-03T21:18:13.928Z,99.90
2017-08-03T21:20:43.407Z,99.90
2017-08-03T21:23:10.932Z,99.90
2017-08-03T21:25:38.574Z,99.90
2017-08-03T21:28:06.858Z,99.90
2017-08-03T21:30:37.393Z,99.90
2017-08-03T21:33:06.543Z,99.90
2017-08-03T21:35:34.050Z,99.90
2017-08-03T21:38:03.580Z,99.90
2017-08-03T21:40:32.854Z,99.90
2017-08-03T21:43:00.375Z,99.90
2017-08-03T21:45:27.901Z,99.90
2017-08-03T21:47:55.432Z,99.90
2017-08-03T21:50:23.435Z,99.90
2017-08-03T21:52:50.932Z,99.90
2017-08-03T21:55:18.442Z,99.90
2017-08-03T21:57:46.011Z,99.90
2017-08-03T22:00:13.527Z,99.90
2017-08-03T22:02:45.970Z,99.90
2017-08-03T22:05:13.500Z,99.90
2017-08-03T22:07:41.380Z,99.90
2017-08-03T22:10:10.932Z,99.90
2017-08-03T22:12:42.691Z,99.90
2017-08-03T22:15:10.971Z,99.90
2017-08-03T22:17:39.263Z,99.90
2017-08-03T22:20:06.803Z,99.90
2017-08-03T22:22:34.333Z,99.90
2017-08-03T22:25:05.575Z,99.90
2017-08-03T22:27:33.093Z,99.90
2017-08-03T22:30:00.608Z,99.90
2017-08-03T22:32:28.169Z,99.90
2017-08-03T22:34:58.399Z,99.90
2017-08-03T22:37:27.037Z,99.90
2017-08-03T22:39:54.552Z,99.90
2017-08-03T22:42:22.825Z,99.90
2017-08-03T22:44:50.368Z,99.90
2017-08-03T22:47:19.383Z,99.90
2017-08-03T22:49:48.120Z,99.90
2017-08-03T22:52:15.878Z,99.90
2017-08-03T22:54:45.043Z,99.90
2017-08-03T22:57:13.331Z,99.90
2017-08-03T22:59:40.841Z,99.90
2017-08-03T23:02:08.769Z,99.90
2017-08-03T23:04:36.288Z,99.90
2017-08-03T23:07:03.810Z,99.90
2017-08-03T23:09:31.335Z,99.90
2017-08-03T23:11:58.852Z,99.90
2017-08-03T23:14:26.665Z,99.90
2017-08-03T23:16:56.199Z,99.90
2017-08-03T23:19:24.382Z,99.90
2017-08-03T23:21:52.914Z,99.90
2017-08-03T23:24:20.514Z,99.90
2017-08-03T23:26:49.485Z,99.90
2017-08-03T23:29:19.706Z,99.90
2017-08-03T23:31:47.295Z,99.90
2017-08-03T23:34:14.819Z,99.90
2017-08-03T23:36:42.491Z,99.90
2017-08-03T23:39:10.158Z,99.90
2017-08-03T23:41:37.666Z,99.90
2017-08-03T23:44:06.612Z,99.90
2017-08-03T23:46:34.133Z,99.90
2017-08-03T23:49:03.339Z,99.90
2017-08-03T23:51:33.121Z,99.90
2017-08-03T23:54:00.629Z,99.90
2017-08-03T23:56:28.832Z,99.90
2017-08-03T23:58:56.360Z,99.90
